Marseillais 6 — FQSJ — position and weather

sailwx.info

Track history (hours):
 
Tides and Currents Weather Stations Pressure Air Temp Water Temp Dewpoint Dewpoint Depression Visibility Wind Speed Wind Dir Waves Ship Positions

Marseillais 6

Last reported at 2017-Jul-25 02:30 UTC. Time now 2017-Jul-25 02:30 UTC.
Position N 43°24' E 004°59'.

Length 35 m; draft 5 m.

Type: Tug. MMSI: 227016900.

Date/timePositionNaut miles runAvg speedWind from/ knotsBaromVisibWave heightAir tempDewpointWater temp
2017-Jul-25 02:30N 43°24' E 004°59'0 0.0
2017-Jul-25 02:00N 43°24' E 004°59'0 0.0
2017-Jul-25 01:30N 43°24' E 004°59'0 0.0
2017-Jul-25 01:00N 43°24' E 004°59'0 0.0
2017-Jul-25 00:30N 43°24' E 004°59'0 0.0
2017-Jul-25 00:00N 43°24' E 004°59'0 0.0
2017-Jul-24 23:30N 43°24' E 004°59'0 0.0
2017-Jul-24 23:00N 43°24' E 004°59'0 0.0
2017-Jul-24 22:30N 43°24' E 004°59'0 0.0
2017-Jul-24 22:00N 43°24' E 004°59'0 0.0
2017-Jul-24 21:30N 43°24' E 004°59'0 0.0
2017-Jul-24 21:00N 43°24' E 004°59'0 0.0
2017-Jul-24 20:30N 43°24' E 004°59'0 0.0
2017-Jul-24 20:00N 43°24' E 004°59'0 0.0
2017-Jul-24 19:30N 43°24' E 004°59'0 0.0
2017-Jul-24 19:00N 43°24' E 004°59'0 0.0
2017-Jul-24 18:31N 43°24' E 004°59'1 2.8
2017-Jul-24 18:01N 43°24' E 004°57'510.5
2017-Jul-24 17:31N 43°25' E 004°50'0 0.3
2017-Jul-24 17:00N 43°25' E 004°50'5 9.8
2017-Jul-24 16:30N 43°24' E 004°57'2 4.1
2017-Jul-24 16:00N 43°24' E 004°60'0 0.1
2017-Jul-24 13:00N 43°24' E 004°59'510.4
2017-Jul-24 12:30N 43°26' E 004°52'0 0.2
2017-Jul-24 12:00N 43°26' E 004°52'1 1.3
2017-Jul-24 11:30N 43°25' E 004°53'2 3.1
2017-Jul-24 11:00N 43°24' E 004°54'2 3.4
2017-Jul-24 10:31N 43°24' E 004°56'2 3.9
2017-Jul-24 10:00N 43°24' E 004°59'0 0.0
2017-Jul-24 09:30N 43°24' E 004°59'0 0.0
2017-Jul-24 09:00N 43°24' E 004°59'0 0.7
2017-Jul-24 08:30N 43°24' E 004°59'0 0.7
2017-Jul-24 08:00N 43°24' E 004°59'0 0.0
2017-Jul-24 07:30N 43°24' E 004°59'0 0.0
2017-Jul-24 07:00N 43°24' E 004°59'0 0.0
2017-Jul-24 06:30N 43°24' E 004°59'0 0.0
2017-Jul-24 06:00N 43°24' E 004°59'0 0.0
2017-Jul-24 05:30N 43°24' E 004°59'3 6.0
2017-Jul-24 05:00N 43°24' E 004°55'1 2.4
2017-Jul-24 04:31N 43°24' E 004°53'0 0.7
2017-Jul-24 04:00N 43°24' E 004°54'2 4.1
2017-Jul-24 03:30N 43°24' E 004°56'2 3.9
2017-Jul-24 03:00N 43°24' E 004°59'0 0.0
2017-Jul-24 02:30N 43°24' E 004°59'0 0.0
2017-Jul-24 02:00N 43°24' E 004°59'0 0.0
2017-Jul-24 01:30N 43°24' E 004°59'0 0.0
2017-Jul-24 01:00N 43°24' E 004°59'0 0.0
2017-Jul-24 00:30N 43°24' E 004°59'0 0.0
2017-Jul-24 00:00N 43°24' E 004°59'0 0.0
2017-Jul-23 23:30N 43°24' E 004°59'1 1.2
2017-Jul-23 23:00N 43°24' E 004°60'0 0.0
2017-Jul-23 22:30N 43°24' E 004°60'1 1.9
2017-Jul-23 22:00N 43°23' E 004°59'0 1.0
2017-Jul-23 21:30N 43°24' E 004°59'0 0.0
2017-Jul-23 21:00N 43°24' E 004°59'0 0.0
2017-Jul-23 20:30N 43°24' E 004°59'0 0.0
2017-Jul-23 20:00N 43°24' E 004°59'0 0.0
2017-Jul-23 19:30N 43°24' E 004°59'0 0.0
2017-Jul-23 19:00N 43°24' E 004°59'0 0.0
2017-Jul-23 18:30N 43°24' E 004°59'0 0.0
2017-Jul-23 18:00N 43°24' E 004°59'0 0.0
2017-Jul-23 17:30N 43°24' E 004°59'0 0.0
2017-Jul-23 17:00N 43°24' E 004°59'0 0.0
2017-Jul-23 16:30N 43°24' E 004°59'0 0.0
2017-Jul-23 16:00N 43°24' E 004°59'0 0.0
2017-Jul-23 15:30N 43°24' E 004°59'0 0.0
2017-Jul-23 15:00N 43°24' E 004°59'0 0.0
2017-Jul-23 14:30N 43°24' E 004°59'0 0.0
2017-Jul-23 14:00N 43°24' E 004°59'0 0.0
2017-Jul-23 13:30N 43°24' E 004°59'0 0.0
2017-Jul-23 13:00N 43°24' E 004°59'0 0.0
2017-Jul-23 12:30N 43°24' E 004°59'0 0.0
2017-Jul-23 12:00N 43°24' E 004°59'0 0.0
2017-Jul-23 11:30N 43°24' E 004°59'3 6.9
2017-Jul-23 11:00N 43°24' E 004°54'3 5.2
2017-Jul-23 10:31N 43°25' E 004°51'1 2.7
2017-Jul-23 10:01N 43°24' E 004°53'0 0.9
2017-Jul-23 09:31N 43°24' E 004°53'2 3.7
2017-Jul-23 09:00N 43°24' E 004°56'3 5.9
2017-Jul-23 08:30N 43°24' E 004°60'0 0.4
2017-Jul-23 08:00N 43°24' E 004°60'0 0.8
2017-Jul-23 07:30N 43°24' E 004°59'0 0.0
2017-Jul-23 07:00N 43°24' E 004°59'0 0.0
2017-Jul-23 06:30N 43°24' E 004°59'0 0.0
2017-Jul-23 06:00N 43°24' E 004°59'0 0.0
2017-Jul-23 05:30N 43°24' E 004°59'0 0.0
2017-Jul-23 05:00N 43°24' E 004°59'0 0.0
2017-Jul-23 04:30N 43°24' E 004°59'0 0.0
2017-Jul-23 04:00N 43°24' E 004°59'0 0.0
2017-Jul-23 03:30N 43°24' E 004°59'0 0.0
2017-Jul-23 03:00N 43°24' E 004°59'0 0.0
2017-Jul-23 02:30N 43°24' E 004°59'0 0.0
2017-Jul-23 02:00N 43°24' E 004°59'0 0.2
2017-Jul-23 01:31N 43°24' E 004°59'0 0.7
2017-Jul-23 01:01N 43°24' E 004°60'0 0.8
2017-Jul-23 00:30N 43°24' E 004°59'0 0.0
2017-Jul-23 00:01N 43°24' E 004°59'0 0.0
2017-Jul-22 23:30N 43°24' E 004°59'0 0.0
2017-Jul-22 23:00N 43°24' E 004°59'0 0.0
2017-Jul-22 22:30N 43°24' E 004°59'0 0.0
2017-Jul-22 22:00N 43°24' E 004°59'0 0.0
2017-Jul-22 21:30N 43°24' E 004°59'0 0.0
2017-Jul-22 21:00N 43°24' E 004°59'0 0.0
2017-Jul-22 20:30N 43°24' E 004°59'0 0.0
2017-Jul-22 20:00N 43°24' E 004°59'1 1.7
2017-Jul-22 19:30N 43°23' E 004°58'511.0
2017-Jul-22 19:00N 43°25' E 004°51'0 0.1
2017-Jul-22 18:30N 43°25' E 004°51'1 2.4
2017-Jul-22 18:00N 43°24' E 004°52'1 3.0
2017-Jul-22 17:31N 43°24' E 004°54'4 7.2
2017-Jul-22 17:00N 43°24' E 004°59'0 0.0
2017-Jul-22 16:30N 43°24' E 004°59'0 0.0
2017-Jul-22 16:00N 43°24' E 004°59'0 0.0
2017-Jul-22 15:30N 43°24' E 004°59'0 0.0
2017-Jul-22 15:00N 43°24' E 004°59'5 5.0
2017-Jul-22 14:00N 43°25' E 004°52'0 0.0
2017-Jul-22 13:30N 43°25' E 004°52'0 0.7
2017-Jul-22 13:00N 43°25' E 004°53'3 5.8
2017-Jul-22 12:30N 43°24' E 004°56'0 0.5
2017-Jul-22 12:00N 43°24' E 004°56'3 5.8
2017-Jul-22 11:30N 43°25' E 004°52'0 0.1
2017-Jul-22 11:00N 43°25' E 004°52'510.0
2017-Jul-22 10:30N 43°24' E 004°59'0 0.6
2017-Jul-22 10:00N 43°24' E 004°59'0 0.0
2017-Jul-22 09:30N 43°24' E 004°59'0 0.0
2017-Jul-22 09:00N 43°24' E 004°59'0 0.0
2017-Jul-22 08:30N 43°24' E 004°59'0 0.0
2017-Jul-22 08:00N 43°24' E 004°59'1 1.2
2017-Jul-22 07:31N 43°24' E 004°60'1 1.2
2017-Jul-22 07:00N 43°24' E 004°59'0 0.1
2017-Jul-22 06:31N 43°24' E 004°59'4 8.0
2017-Jul-22 06:00N 43°24' E 004°54'2 3.1
2017-Jul-22 05:30N 43°26' E 004°54'0 0.0
2017-Jul-22 04:59N 43°26' E 004°54'0 0.0
2017-Jul-22 04:28N 43°26' E 004°54'0 0.0
2017-Jul-22 04:01N 43°26' E 004°54'0 0.0
2017-Jul-22 03:30N 43°26' E 004°54'0 0.0
2017-Jul-22 03:00N 43°26' E 004°54'0 0.0
2017-Jul-22 02:30N 43°26' E 004°54'0 0.0
2017-Jul-22 01:59N 43°26' E 004°54'0 0.0
2017-Jul-22 01:31N 43°26' E 004°54'0 0.0
2017-Jul-22 01:00N 43°26' E 004°54'0 0.0
2017-Jul-22 00:30N 43°26' E 004°54'0 0.0
2017-Jul-22 00:00N 43°26' E 004°54'0 0.0
2017-Jul-21 23:29N 43°26' E 004°54'0 0.0
2017-Jul-21 23:01N 43°26' E 004°54'0 0.0
2017-Jul-21 22:31N 43°26' E 004°54'0 0.0
2017-Jul-21 22:00N 43°26' E 004°54'0 0.0
2017-Jul-21 21:31N 43°26' E 004°54'0 0.0
2017-Jul-21 21:00N 43°26' E 004°54'0 0.2
2017-Jul-21 20:30N 43°26' E 004°54'1 2.2
2017-Jul-21 20:00N 43°26' E 004°52'2 4.3
2017-Jul-21 19:30N 43°24' E 004°54'2 3.3
2017-Jul-21 19:01N 43°26' E 004°54'0 0.0
2017-Jul-21 18:30N 43°26' E 004°54'0 0.0
2017-Jul-21 18:00N 43°26' E 004°54'0 0.0
2017-Jul-21 17:30N 43°26' E 004°54'0 0.0
2017-Jul-21 17:01N 43°26' E 004°54'0 0.0
2017-Jul-21 16:30N 43°26' E 004°54'0 0.0
2017-Jul-21 16:01N 43°26' E 004°54'0 0.0
2017-Jul-21 15:30N 43°26' E 004°54'0 0.0
2017-Jul-21 15:00N 43°26' E 004°54'0 0.0
2017-Jul-21 14:31N 43°26' E 004°54'0 0.0
2017-Jul-21 14:01N 43°26' E 004°54'0 0.0
2017-Jul-21 13:31N 43°26' E 004°54'0 0.0
2017-Jul-21 13:00N 43°26' E 004°54'0 0.0
2017-Jul-21 12:31N 43°26' E 004°54'0 0.0
2017-Jul-21 12:01N 43°26' E 004°54'0 0.0
2017-Jul-21 11:30N 43°26' E 004°54'0 0.0
2017-Jul-21 11:00N 43°26' E 004°54'0 0.0
2017-Jul-21 10:30N 43°26' E 004°54'0 0.0
2017-Jul-21 10:00N 43°26' E 004°54'0 0.0
2017-Jul-21 09:30N 43°26' E 004°54'0 0.0
2017-Jul-21 09:01N 43°26' E 004°54'0 0.0
2017-Jul-21 08:30N 43°26' E 004°54'0 0.0
2017-Jul-21 08:00N 43°26' E 004°54'0 0.0
2017-Jul-21 07:30N 43°26' E 004°54'0 0.0
2017-Jul-21 07:00N 43°26' E 004°54'0 0.0
2017-Jul-21 06:31N 43°26' E 004°54'0 0.0
2017-Jul-21 06:00N 43°26' E 004°54'0 0.0
2017-Jul-21 05:31N 43°26' E 004°54'0 0.0
2017-Jul-21 05:00N 43°26' E 004°54'0 0.0
2017-Jul-21 04:30N 43°26' E 004°54'0 0.0
2017-Jul-21 04:00N 43°26' E 004°54'0 0.0
2017-Jul-21 03:31N 43°26' E 004°54'0 0.0
2017-Jul-21 03:00N 43°26' E 004°54'0 0.0
2017-Jul-21 02:31N 43°26' E 004°54'0 0.0
2017-Jul-21 02:00N 43°26' E 004°54'0 0.0
2017-Jul-21 01:30N 43°26' E 004°54'0 0.0
2017-Jul-21 01:00N 43°26' E 004°54'0 0.0
2017-Jul-21 00:31N 43°26' E 004°54'0 0.0
2017-Jul-21 00:01N 43°26' E 004°54'0 0.0
2017-Jul-20 23:30N 43°26' E 004°54'0 0.0
2017-Jul-20 23:00N 43°26' E 004°54'0 0.0
2017-Jul-20 22:30N 43°26' E 004°54'0 0.0
2017-Jul-20 22:00N 43°26' E 004°54'0 0.0
2017-Jul-20 21:30N 43°26' E 004°54'0 0.0
2017-Jul-20 21:00N 43°26' E 004°54'0 0.0
2017-Jul-20 20:30N 43°26' E 004°54'0 0.0
2017-Jul-20 20:00N 43°26' E 004°54'0 0.0
2017-Jul-20 19:30N 43°26' E 004°54'0 0.0
2017-Jul-20 19:00N 43°26' E 004°54'0 0.0
2017-Jul-20 18:31N 43°26' E 004°54'0 0.0
2017-Jul-20 18:00N 43°26' E 004°54'0 0.0
2017-Jul-20 17:31N 43°26' E 004°54'0 0.0
2017-Jul-20 17:00N 43°26' E 004°54'0 0.0
2017-Jul-20 16:31N 43°26' E 004°54'0 0.0
2017-Jul-20 16:00N 43°26' E 004°54'0 0.0
2017-Jul-20 15:31N 43°26' E 004°54'0 0.0
2017-Jul-20 15:00N 43°26' E 004°54'0 0.0
2017-Jul-20 14:00N 43°26' E 004°54'0 0.0
2017-Jul-20 13:30N 43°26' E 004°54'0 0.0
2017-Jul-20 13:00N 43°26' E 004°54'0 0.0
2017-Jul-20 12:30N 43°26' E 004°54'0 0.0
2017-Jul-20 12:00N 43°26' E 004°54'0 0.0
2017-Jul-20 11:30N 43°26' E 004°54'0 0.4
2017-Jul-20 11:01N 43°26' E 004°54'2 4.6
2017-Jul-20 10:30N 43°25' E 004°51'0 0.0
2017-Jul-20 10:00N 43°25' E 004°51'2 3.2
2017-Jul-20 09:31N 43°25' E 004°53'1 1.9
2017-Jul-20 09:00N 43°26' E 004°54'1 1.0
2017-Jul-20 08:31N 43°25' E 004°53'2 4.2
2017-Jul-20 08:01N 43°25' E 004°50'0 0.3
2017-Jul-20 07:30N 43°25' E 004°50'1 1.3
2017-Jul-20 07:01N 43°25' E 004°51'2 4.1
2017-Jul-20 06:30N 43°25' E 004°54'0 0.0
2017-Jul-20 06:00N 43°25' E 004°54'1 1.4
2017-Jul-20 05:30N 43°26' E 004°54'0 0.0
2017-Jul-20 05:00N 43°26' E 004°54'0 0.0
2017-Jul-20 04:30N 43°26' E 004°54'0 0.0
2017-Jul-20 04:00N 43°26' E 004°54'2 4.6
2017-Jul-20 03:31N 43°25' E 004°51'1 1.4
2017-Jul-20 03:00N 43°25' E 004°50'2 3.7
2017-Jul-20 02:28N 43°25' E 004°53'1 2.4
2017-Jul-20 02:00N 43°26' E 004°54'0 0.0
2017-Jul-20 01:30N 43°26' E 004°54'0 0.0
2017-Jul-20 01:01N 43°26' E 004°54'0 0.0
2017-Jul-20 00:30N 43°26' E 004°54'0 0.0
2017-Jul-20 00:00N 43°26' E 004°54'0 0.0
2017-Jul-19 23:30N 43°26' E 004°54'0 0.0
2017-Jul-19 23:00N 43°26' E 004°54'0 0.0
2017-Jul-19 22:30N 43°26' E 004°54'0 0.0
2017-Jul-19 22:00N 43°26' E 004°54'0 0.0
2017-Jul-19 21:30N 43°26' E 004°54'0 0.0
2017-Jul-19 21:00N 43°26' E 004°54'0 0.0
2017-Jul-19 20:30N 43°26' E 004°54'0 0.0
2017-Jul-19 20:00N 43°26' E 004°54'1 2.3
2017-Jul-19 19:29N 43°26' E 004°52'0 0.6
2017-Jul-19 19:00N 43°26' E 004°52'1 2.4
2017-Jul-19 18:30N 43°26' E 004°54'1 2.4
2017-Jul-19 17:59N 43°25' E 004°53'1 2.7
2017-Jul-19 17:30N 43°26' E 004°54'0 0.0
2017-Jul-19 17:00N 43°26' E 004°54'0 0.0
2017-Jul-19 16:30N 43°26' E 004°54'1 1.2
2017-Jul-19 16:00N 43°25' E 004°53'2 4.8
2017-Jul-19 15:30N 43°25' E 004°50'0 0.0
2017-Jul-19 15:00N 43°25' E 004°50'3 5.6
2017-Jul-19 14:30N 43°26' E 004°54'0 0.2
2017-Jul-19 14:00N 43°26' E 004°54'0 0.0
2017-Jul-19 13:30N 43°26' E 004°54'0 0.0
2017-Jul-19 13:00N 43°26' E 004°54'0 0.0
2017-Jul-19 12:30N 43°26' E 004°54'0 0.0
2017-Jul-19 12:00N 43°26' E 004°54'0 0.0
2017-Jul-19 11:30N 43°26' E 004°54'0 0.0
2017-Jul-19 11:00N 43°26' E 004°54'0 0.0
2017-Jul-19 10:30N 43°26' E 004°54'0 0.0
2017-Jul-19 10:00N 43°26' E 004°54'0 0.0
2017-Jul-19 09:30N 43°26' E 004°54'0 0.0
2017-Jul-19 09:00N 43°26' E 004°54'0 0.0
2017-Jul-19 08:30N 43°26' E 004°54'0 0.0
2017-Jul-19 08:00N 43°26' E 004°54'0 0.0
2017-Jul-19 07:30N 43°26' E 004°54'0 0.0
2017-Jul-19 07:00N 43°26' E 004°54'0 0.0
2017-Jul-19 06:30N 43°26' E 004°54'1 1.6
2017-Jul-19 06:01N 43°25' E 004°53'0 0.1
2017-Jul-19 05:30N 43°25' E 004°53'1 1.6
2017-Jul-19 05:00N 43°26' E 004°54'0 0.0
2017-Jul-19 04:30N 43°26' E 004°54'0 0.0
2017-Jul-19 04:00N 43°26' E 004°54'3 5.5
2017-Jul-19 03:30N 43°25' E 004°50'0 0.5
2017-Jul-19 03:01N 43°25' E 004°50'2 4.3
2017-Jul-19 02:28N 43°25' E 004°53'1 2.3
2017-Jul-19 02:00N 43°26' E 004°54'0 0.0
2017-Jul-19 01:30N 43°26' E 004°54'0 0.0
2017-Jul-19 01:00N 43°26' E 004°54'0 0.0
2017-Jul-19 00:30N 43°26' E 004°54'0 0.0
2017-Jul-19 00:00N 43°26' E 004°54'0 0.0
2017-Jul-18 23:30N 43°26' E 004°54'0 0.0
2017-Jul-18 23:00N 43°26' E 004°54'0 0.0
2017-Jul-18 22:30N 43°26' E 004°54'0 0.0
2017-Jul-18 22:00N 43°26' E 004°54'0 0.0
2017-Jul-18 21:30N 43°26' E 004°54'0 0.0
2017-Jul-18 21:00N 43°26' E 004°54'0 0.0
2017-Jul-18 20:30N 43°26' E 004°54'0 0.0
2017-Jul-18 20:00N 43°26' E 004°54'0 0.0
2017-Jul-18 19:30N 43°26' E 004°54'0 0.0
2017-Jul-18 19:00N 43°26' E 004°54'0 0.0
2017-Jul-18 18:30N 43°26' E 004°54'0 0.0
2017-Jul-18 18:00N 43°26' E 004°54'0 0.0
2017-Jul-18 17:30N 43°26' E 004°54'0 0.0
2017-Jul-18 17:00N 43°26' E 004°54'0 0.0
2017-Jul-18 16:30N 43°26' E 004°54'0 0.0
2017-Jul-18 16:00N 43°26' E 004°54'0 0.0
2017-Jul-18 15:30N 43°26' E 004°54'0 0.0
2017-Jul-18 15:00N 43°26' E 004°54'1 1.0
2017-Jul-18 14:00N 43°25' E 004°53'1 2.1
2017-Jul-18 13:31N 43°24' E 004°54'1 2.9
2017-Jul-18 13:00N 43°25' E 004°53'0 0.9
2017-Jul-18 12:30N 43°26' E 004°54'0 0.0
2017-Jul-18 12:00N 43°26' E 004°54'1 1.7
2017-Jul-18 11:21N 43°26' E 004°52'1 2.2
2017-Jul-18 11:00N 43°25' E 004°53'0 0.4
2017-Jul-18 10:30N 43°25' E 004°53'1 2.0
2017-Jul-18 10:00N 43°26' E 004°54'0 0.0
2017-Jul-18 09:30N 43°26' E 004°54'0 0.0
2017-Jul-18 09:00N 43°26' E 004°54'0 0.0
2017-Jul-18 08:30N 43°26' E 004°54'0 0.0
2017-Jul-18 08:00N 43°26' E 004°54'0 0.0
2017-Jul-18 07:30N 43°26' E 004°54'0 0.0
2017-Jul-18 07:00N 43°26' E 004°54'0 0.0
2017-Jul-18 06:30N 43°26' E 004°54'0 0.0
2017-Jul-18 06:00N 43°26' E 004°54'0 0.0
2017-Jul-18 05:30N 43°26' E 004°54'0 0.0
2017-Jul-18 05:00N 43°26' E 004°54'0 0.0
2017-Jul-18 04:30N 43°26' E 004°54'0 0.0
2017-Jul-18 04:00N 43°26' E 004°54'0 0.0
2017-Jul-18 03:30N 43°26' E 004°54'0 0.0
2017-Jul-18 03:00N 43°26' E 004°54'0 0.0
2017-Jul-18 02:30N 43°26' E 004°54'0 0.0
2017-Jul-18 02:00N 43°26' E 004°54'0 0.0
2017-Jul-18 01:30N 43°26' E 004°54'0 0.0
2017-Jul-18 01:00N 43°26' E 004°54'0 0.0
2017-Jul-18 00:30N 43°26' E 004°54'0 0.0
2017-Jul-18 00:00N 43°26' E 004°54'0 0.0
2017-Jul-17 23:30N 43°26' E 004°54'0 0.0
2017-Jul-17 23:00N 43°26' E 004°54'0 0.0
2017-Jul-17 22:30N 43°26' E 004°54'0 0.0
2017-Jul-17 22:00N 43°26' E 004°54'0 0.0
2017-Jul-17 21:30N 43°26' E 004°54'0 0.0
2017-Jul-17 21:00N 43°26' E 004°54'0 0.0
2017-Jul-17 20:30N 43°26' E 004°54'0 0.0
2017-Jul-17 20:00N 43°26' E 004°54'0 0.0
2017-Jul-17 19:30N 43°26' E 004°54'0 0.0
2017-Jul-17 19:00N 43°26' E 004°54'0 0.0
2017-Jul-17 18:30N 43°26' E 004°54'0 0.0
2017-Jul-17 18:00N 43°26' E 004°54'0 0.0
2017-Jul-17 17:30N 43°26' E 004°54'0 0.0
2017-Jul-17 17:00N 43°26' E 004°54'0 0.0
2017-Jul-17 16:30N 43°26' E 004°54'0 0.0
2017-Jul-17 16:00N 43°26' E 004°54'0 0.0
2017-Jul-17 15:30N 43°26' E 004°54'0 0.0
2017-Jul-17 15:00N 43°26' E 004°54'0 0.0
2017-Jul-17 14:30N 43°26' E 004°54'0 0.0
2017-Jul-17 14:00N 43°26' E 004°54'0 0.0
2017-Jul-17 13:30N 43°26' E 004°54'0 0.0
2017-Jul-17 13:00N 43°26' E 004°54'0 0.0
2017-Jul-17 12:30N 43°26' E 004°54'0 0.0
2017-Jul-17 12:00N 43°26' E 004°54'0 0.0
2017-Jul-17 11:30N 43°26' E 004°54'0 0.0
2017-Jul-17 11:00N 43°26' E 004°54'0 0.0
2017-Jul-17 10:30N 43°26' E 004°54'0 0.0
2017-Jul-17 10:00N 43°26' E 004°54'0 0.0
2017-Jul-17 09:30N 43°26' E 004°54'0 0.0
2017-Jul-17 09:00N 43°26' E 004°54'0 0.0
2017-Jul-17 08:30N 43°26' E 004°54'0 0.0
2017-Jul-17 08:00N 43°26' E 004°54'0 0.0
2017-Jul-17 07:30N 43°26' E 004°54'0 0.0
2017-Jul-17 06:54N 43°26' E 004°54'0 0.0
2017-Jul-17 06:27N 43°26' E 004°54'0 0.0
2017-Jul-17 05:59N 43°26' E 004°54'0 0.0
2017-Jul-17 05:29N 43°26' E 004°54'0 0.0
2017-Jul-17 05:00N 43°26' E 004°54'0 0.0
2017-Jul-17 04:29N 43°26' E 004°54'0 0.0
2017-Jul-17 03:59N 43°26' E 004°54'0 0.0
2017-Jul-17 03:29N 43°26' E 004°54'0 0.0
2017-Jul-17 03:00N 43°26' E 004°54'0 0.0
2017-Jul-17 02:27N 43°26' E 004°54'0 0.0
2017-Jul-17 01:56N 43°26' E 004°54'0 0.0
2017-Jul-17 01:29N 43°26' E 004°54'0 0.0
2017-Jul-17 00:57N 43°26' E 004°54'0 0.0
2017-Jul-17 00:30N 43°26' E 004°54'0 0.0
2017-Jul-16 23:59N 43°26' E 004°54'0 0.0
2017-Jul-16 23:30N 43°26' E 004°54'0 0.0
2017-Jul-16 23:00N 43°26' E 004°54'0 0.0
2017-Jul-16 22:30N 43°26' E 004°54'0 0.0
2017-Jul-16 21:59N 43°26' E 004°54'0 0.0
2017-Jul-16 21:16N 43°26' E 004°54'0 0.0
2017-Jul-16 21:00N 43°26' E 004°54'0 0.0
2017-Jul-16 20:15N 43°26' E 004°54'0 0.0
2017-Jul-16 20:00N 43°26' E 004°54'0 0.0
2017-Jul-16 19:28N 43°26' E 004°54'0 0.0
2017-Jul-16 19:00N 43°26' E 004°54'0 0.0
2017-Jul-16 18:28N 43°26' E 004°54'0 0.0
2017-Jul-16 17:59N 43°26' E 004°54'0 0.0
2017-Jul-16 17:30N 43°26' E 004°54'0 0.0
2017-Jul-16 16:59N 43°26' E 004°54'0 0.0
2017-Jul-16 16:26N 43°26' E 004°54'0 0.0
2017-Jul-16 15:46N 43°26' E 004°54'0 0.0
2017-Jul-16 15:21N 43°26' E 004°54'0 0.0
2017-Jul-16 14:56N 43°26' E 004°54'0 0.0
2017-Jul-16 13:11N 43°26' E 004°54'0 0.0
2017-Jul-16 12:55N 43°26' E 004°54'0 0.0
2017-Jul-16 11:51N 43°26' E 004°54'0 0.0
2017-Jul-16 11:25N 43°26' E 004°54'0 0.0
2017-Jul-16 10:57N 43°26' E 004°54'0 0.0
2017-Jul-16 10:27N 43°26' E 004°54'0 0.0
2017-Jul-16 09:22N 43°26' E 004°54'0 0.0
2017-Jul-16 09:00N 43°26' E 004°54'0 0.0
2017-Jul-16 08:23N 43°26' E 004°54'0 0.0
2017-Jul-16 07:57N 43°26' E 004°54'0 0.0
2017-Jul-16 07:28N 43°26' E 004°54'0 0.0
2017-Jul-16 07:00N 43°26' E 004°54'0 0.0
2017-Jul-16 06:25N 43°26' E 004°54'0 0.0
2017-Jul-16 05:57N 43°26' E 004°54'0 0.0
2017-Jul-16 05:27N 43°26' E 004°54'0 0.0
2017-Jul-16 04:59N 43°26' E 004°54'0 0.0
2017-Jul-16 04:30N 43°26' E 004°54'0 0.0
2017-Jul-16 03:57N 43°26' E 004°54'0 0.0
2017-Jul-16 03:30N 43°26' E 004°54'0 0.0
2017-Jul-16 02:02N 43°26' E 004°54'0 0.0
2017-Jul-16 01:21N 43°26' E 004°54'0 0.0
2017-Jul-16 00:57N 43°26' E 004°54'0 0.0
2017-Jul-16 00:21N 43°26' E 004°54'0 0.0
2017-Jul-15 23:45N 43°26' E 004°54'0 0.0
2017-Jul-15 23:29N 43°26' E 004°54'0 0.0
2017-Jul-15 23:00N 43°26' E 004°54'0 0.0
2017-Jul-15 22:23N 43°26' E 004°54'0 0.0
2017-Jul-15 22:00N 43°26' E 004°54'0 0.0
2017-Jul-15 21:30N 43°26' E 004°54'0 0.0
2017-Jul-15 20:59N 43°26' E 004°54'0 0.0
2017-Jul-15 20:23N 43°26' E 004°54'0 0.0
2017-Jul-15 19:55N 43°26' E 004°54'0 0.0
2017-Jul-15 19:16N 43°26' E 004°54'0 0.0
2017-Jul-15 19:00N 43°26' E 004°54'0 0.0
2017-Jul-15 18:17N 43°26' E 004°54'0 0.0
2017-Jul-15 17:51N 43°26' E 004°54'0 0.0
2017-Jul-15 17:27N 43°26' E 004°54'0 0.0
2017-Jul-15 16:57N 43°26' E 004°54'0 0.0
2017-Jul-15 15:44N 43°26' E 004°54'0 0.0
2017-Jul-15 15:16N 43°26' E 004°54'0 0.0
2017-Jul-15 15:00N 43°26' E 004°54'0 0.0
2017-Jul-15 13:32N 43°26' E 004°54'0 0.0
2017-Jul-15 13:30N 43°26' E 004°54'0 0.0
2017-Jul-15 13:01N 43°26' E 004°54'0 0.0
2017-Jul-15 11:41N 43°26' E 004°54'0 0.0
2017-Jul-15 11:30N 43°26' E 004°54'0 0.0
2017-Jul-15 11:00N 43°26' E 004°54'0 0.0
2017-Jul-15 09:50N 43°26' E 004°54'0 0.0
2017-Jul-15 09:22N 43°26' E 004°54'0 0.0
2017-Jul-15 09:00N 43°26' E 004°54'0 0.0
2017-Jul-15 08:22N 43°26' E 004°54'0 0.0
2017-Jul-15 07:59N 43°26' E 004°54'0 0.0
2017-Jul-15 07:17N 43°26' E 004°54'0 0.0
2017-Jul-15 07:00N 43°26' E 004°54'0 0.0
2017-Jul-15 05:42N 43°26' E 004°54'0 0.0
2017-Jul-15 05:30N 43°26' E 004°54'0 0.0
2017-Jul-15 05:00N 43°26' E 004°54'0 0.0
2017-Jul-15 04:29N 43°26' E 004°54'0 0.0
2017-Jul-15 04:00N 43°26' E 004°54'0 0.0
2017-Jul-15 03:29N 43°26' E 004°54'0 0.0
2017-Jul-15 02:58N 43°26' E 004°54'  
Track history (hours):
 
Tides and Currents Weather Stations Pressure Air Temp Water Temp Dewpoint Dewpoint Depression Visibility Wind Speed Wind Dir Waves Ship Positions

Marseillais 6

Last reported at 2017-Jul-25 02:30 UTC. Time now 2017-Jul-25 02:30 UTC.
Position N 43°24' E 004°59'.

Length 35 m; draft 5 m.

Type: Tug. MMSI: 227016900.

Date/timePositionNaut miles runAvg speedWind from/ knotsBaromVisibWave heightAir tempDewpointWater temp
2017-Jul-25 02:30N 43°24' E 004°59'0 0.0
2017-Jul-25 02:00N 43°24' E 004°59'0 0.0
2017-Jul-25 01:30N 43°24' E 004°59'0 0.0
2017-Jul-25 01:00N 43°24' E 004°59'0 0.0
2017-Jul-25 00:30N 43°24' E 004°59'0 0.0
2017-Jul-25 00:00N 43°24' E 004°59'0 0.0
2017-Jul-24 23:30N 43°24' E 004°59'0 0.0
2017-Jul-24 23:00N 43°24' E 004°59'0 0.0
2017-Jul-24 22:30N 43°24' E 004°59'0 0.0
2017-Jul-24 22:00N 43°24' E 004°59'0 0.0
2017-Jul-24 21:30N 43°24' E 004°59'0 0.0
2017-Jul-24 21:00N 43°24' E 004°59'0 0.0
2017-Jul-24 20:30N 43°24' E 004°59'0 0.0
2017-Jul-24 20:00N 43°24' E 004°59'0 0.0
2017-Jul-24 19:30N 43°24' E 004°59'0 0.0
2017-Jul-24 19:00N 43°24' E 004°59'0 0.0
2017-Jul-24 18:31N 43°24' E 004°59'1 2.8
2017-Jul-24 18:01N 43°24' E 004°57'510.5
2017-Jul-24 17:31N 43°25' E 004°50'0 0.3
2017-Jul-24 17:00N 43°25' E 004°50'5 9.8
2017-Jul-24 16:30N 43°24' E 004°57'2 4.1
2017-Jul-24 16:00N 43°24' E 004°60'0 0.1
2017-Jul-24 13:00N 43°24' E 004°59'510.4
2017-Jul-24 12:30N 43°26' E 004°52'0 0.2
2017-Jul-24 12:00N 43°26' E 004°52'1 1.3
2017-Jul-24 11:30N 43°25' E 004°53'2 3.1
2017-Jul-24 11:00N 43°24' E 004°54'2 3.4
2017-Jul-24 10:31N 43°24' E 004°56'2 3.9
2017-Jul-24 10:00N 43°24' E 004°59'0 0.0
2017-Jul-24 09:30N 43°24' E 004°59'0 0.0
2017-Jul-24 09:00N 43°24' E 004°59'0 0.7
2017-Jul-24 08:30N 43°24' E 004°59'0 0.7
2017-Jul-24 08:00N 43°24' E 004°59'0 0.0
2017-Jul-24 07:30N 43°24' E 004°59'0 0.0
2017-Jul-24 07:00N 43°24' E 004°59'0 0.0
2017-Jul-24 06:30N 43°24' E 004°59'0 0.0
2017-Jul-24 06:00N 43°24' E 004°59'0 0.0
2017-Jul-24 05:30N 43°24' E 004°59'3 6.0
2017-Jul-24 05:00N 43°24' E 004°55'1 2.4
2017-Jul-24 04:31N 43°24' E 004°53'0 0.7
2017-Jul-24 04:00N 43°24' E 004°54'2 4.1
2017-Jul-24 03:30N 43°24' E 004°56'2 3.9
2017-Jul-24 03:00N 43°24' E 004°59'0 0.0
2017-Jul-24 02:30N 43°24' E 004°59'0 0.0
2017-Jul-24 02:00N 43°24' E 004°59'0 0.0
2017-Jul-24 01:30N 43°24' E 004°59'0 0.0
2017-Jul-24 01:00N 43°24' E 004°59'0 0.0
2017-Jul-24 00:30N 43°24' E 004°59'0 0.0
2017-Jul-24 00:00N 43°24' E 004°59'0 0.0
2017-Jul-23 23:30N 43°24' E 004°59'1 1.2
2017-Jul-23 23:00N 43°24' E 004°60'0 0.0
2017-Jul-23 22:30N 43°24' E 004°60'1 1.9
2017-Jul-23 22:00N 43°23' E 004°59'0 1.0
2017-Jul-23 21:30N 43°24' E 004°59'0 0.0
2017-Jul-23 21:00N 43°24' E 004°59'0 0.0
2017-Jul-23 20:30N 43°24' E 004°59'0 0.0
2017-Jul-23 20:00N 43°24' E 004°59'0 0.0
2017-Jul-23 19:30N 43°24' E 004°59'0 0.0
2017-Jul-23 19:00N 43°24' E 004°59'0 0.0
2017-Jul-23 18:30N 43°24' E 004°59'0 0.0
2017-Jul-23 18:00N 43°24' E 004°59'0 0.0
2017-Jul-23 17:30N 43°24' E 004°59'0 0.0
2017-Jul-23 17:00N 43°24' E 004°59'0 0.0
2017-Jul-23 16:30N 43°24' E 004°59'0 0.0
2017-Jul-23 16:00N 43°24' E 004°59'0 0.0
2017-Jul-23 15:30N 43°24' E 004°59'0 0.0
2017-Jul-23 15:00N 43°24' E 004°59'0 0.0
2017-Jul-23 14:30N 43°24' E 004°59'0 0.0
2017-Jul-23 14:00N 43°24' E 004°59'0 0.0
2017-Jul-23 13:30N 43°24' E 004°59'0 0.0
2017-Jul-23 13:00N 43°24' E 004°59'0 0.0
2017-Jul-23 12:30N 43°24' E 004°59'0 0.0
2017-Jul-23 12:00N 43°24' E 004°59'0 0.0
2017-Jul-23 11:30N 43°24' E 004°59'3 6.9
2017-Jul-23 11:00N 43°24' E 004°54'3 5.2
2017-Jul-23 10:31N 43°25' E 004°51'1 2.7
2017-Jul-23 10:01N 43°24' E 004°53'0 0.9
2017-Jul-23 09:31N 43°24' E 004°53'2 3.7
2017-Jul-23 09:00N 43°24' E 004°56'3 5.9
2017-Jul-23 08:30N 43°24' E 004°60'0 0.4
2017-Jul-23 08:00N 43°24' E 004°60'0 0.8
2017-Jul-23 07:30N 43°24' E 004°59'0 0.0
2017-Jul-23 07:00N 43°24' E 004°59'0 0.0
2017-Jul-23 06:30N 43°24' E 004°59'0 0.0
2017-Jul-23 06:00N 43°24' E 004°59'0 0.0
2017-Jul-23 05:30N 43°24' E 004°59'0 0.0
2017-Jul-23 05:00N 43°24' E 004°59'0 0.0
2017-Jul-23 04:30N 43°24' E 004°59'0 0.0
2017-Jul-23 04:00N 43°24' E 004°59'0 0.0
2017-Jul-23 03:30N 43°24' E 004°59'0 0.0
2017-Jul-23 03:00N 43°24' E 004°59'0 0.0
2017-Jul-23 02:30N 43°24' E 004°59'0 0.0
2017-Jul-23 02:00N 43°24' E 004°59'0 0.2
2017-Jul-23 01:31N 43°24' E 004°59'0 0.7
2017-Jul-23 01:01N 43°24' E 004°60'0 0.8
2017-Jul-23 00:30N 43°24' E 004°59'0 0.0
2017-Jul-23 00:01N 43°24' E 004°59'0 0.0
2017-Jul-22 23:30N 43°24' E 004°59'0 0.0
2017-Jul-22 23:00N 43°24' E 004°59'0 0.0
2017-Jul-22 22:30N 43°24' E 004°59'0 0.0
2017-Jul-22 22:00N 43°24' E 004°59'0 0.0
2017-Jul-22 21:30N 43°24' E 004°59'0 0.0
2017-Jul-22 21:00N 43°24' E 004°59'0 0.0
2017-Jul-22 20:30N 43°24' E 004°59'0 0.0
2017-Jul-22 20:00N 43°24' E 004°59'1 1.7
2017-Jul-22 19:30N 43°23' E 004°58'511.0
2017-Jul-22 19:00N 43°25' E 004°51'0 0.1
2017-Jul-22 18:30N 43°25' E 004°51'1 2.4
2017-Jul-22 18:00N 43°24' E 004°52'1 3.0
2017-Jul-22 17:31N 43°24' E 004°54'4 7.2
2017-Jul-22 17:00N 43°24' E 004°59'0 0.0
2017-Jul-22 16:30N 43°24' E 004°59'0 0.0
2017-Jul-22 16:00N 43°24' E 004°59'0 0.0
2017-Jul-22 15:30N 43°24' E 004°59'0 0.0
2017-Jul-22 15:00N 43°24' E 004°59'5 5.0
2017-Jul-22 14:00N 43°25' E 004°52'0 0.0
2017-Jul-22 13:30N 43°25' E 004°52'0 0.7
2017-Jul-22 13:00N 43°25' E 004°53'3 5.8
2017-Jul-22 12:30N 43°24' E 004°56'0 0.5
2017-Jul-22 12:00N 43°24' E 004°56'3 5.8
2017-Jul-22 11:30N 43°25' E 004°52'0 0.1
2017-Jul-22 11:00N 43°25' E 004°52'510.0
2017-Jul-22 10:30N 43°24' E 004°59'0 0.6
2017-Jul-22 10:00N 43°24' E 004°59'0 0.0
2017-Jul-22 09:30N 43°24' E 004°59'0 0.0
2017-Jul-22 09:00N 43°24' E 004°59'0 0.0
2017-Jul-22 08:30N 43°24' E 004°59'0 0.0
2017-Jul-22 08:00N 43°24' E 004°59'1 1.2
2017-Jul-22 07:31N 43°24' E 004°60'1 1.2
2017-Jul-22 07:00N 43°24' E 004°59'0 0.1
2017-Jul-22 06:31N 43°24' E 004°59'4 8.0
2017-Jul-22 06:00N 43°24' E 004°54'2 3.1
2017-Jul-22 05:30N 43°26' E 004°54'0 0.0
2017-Jul-22 04:59N 43°26' E 004°54'0 0.0
2017-Jul-22 04:28N 43°26' E 004°54'0 0.0
2017-Jul-22 04:01N 43°26' E 004°54'0 0.0
2017-Jul-22 03:30N 43°26' E 004°54'0 0.0
2017-Jul-22 03:00N 43°26' E 004°54'0 0.0
2017-Jul-22 02:30N 43°26' E 004°54'0 0.0
2017-Jul-22 01:59N 43°26' E 004°54'0 0.0
2017-Jul-22 01:31N 43°26' E 004°54'0 0.0
2017-Jul-22 01:00N 43°26' E 004°54'0 0.0
2017-Jul-22 00:30N 43°26' E 004°54'0 0.0
2017-Jul-22 00:00N 43°26' E 004°54'0 0.0
2017-Jul-21 23:29N 43°26' E 004°54'0 0.0
2017-Jul-21 23:01N 43°26' E 004°54'0 0.0
2017-Jul-21 22:31N 43°26' E 004°54'0 0.0
2017-Jul-21 22:00N 43°26' E 004°54'0 0.0
2017-Jul-21 21:31N 43°26' E 004°54'0 0.0
2017-Jul-21 21:00N 43°26' E 004°54'0 0.2
2017-Jul-21 20:30N 43°26' E 004°54'1 2.2
2017-Jul-21 20:00N 43°26' E 004°52'2 4.3
2017-Jul-21 19:30N 43°24' E 004°54'2 3.3
2017-Jul-21 19:01N 43°26' E 004°54'0 0.0
2017-Jul-21 18:30N 43°26' E 004°54'0 0.0
2017-Jul-21 18:00N 43°26' E 004°54'0 0.0
2017-Jul-21 17:30N 43°26' E 004°54'0 0.0
2017-Jul-21 17:01N 43°26' E 004°54'0 0.0
2017-Jul-21 16:30N 43°26' E 004°54'0 0.0
2017-Jul-21 16:01N 43°26' E 004°54'0 0.0
2017-Jul-21 15:30N 43°26' E 004°54'0 0.0
2017-Jul-21 15:00N 43°26' E 004°54'0 0.0
2017-Jul-21 14:31N 43°26' E 004°54'0 0.0
2017-Jul-21 14:01N 43°26' E 004°54'0 0.0
2017-Jul-21 13:31N 43°26' E 004°54'0 0.0
2017-Jul-21 13:00N 43°26' E 004°54'0 0.0
2017-Jul-21 12:31N 43°26' E 004°54'0 0.0
2017-Jul-21 12:01N 43°26' E 004°54'0 0.0
2017-Jul-21 11:30N 43°26' E 004°54'0 0.0
2017-Jul-21 11:00N 43°26' E 004°54'0 0.0
2017-Jul-21 10:30N 43°26' E 004°54'0 0.0
2017-Jul-21 10:00N 43°26' E 004°54'0 0.0
2017-Jul-21 09:30N 43°26' E 004°54'0 0.0
2017-Jul-21 09:01N 43°26' E 004°54'0 0.0
2017-Jul-21 08:30N 43°26' E 004°54'0 0.0
2017-Jul-21 08:00N 43°26' E 004°54'0 0.0
2017-Jul-21 07:30N 43°26' E 004°54'0 0.0
2017-Jul-21 07:00N 43°26' E 004°54'0 0.0
2017-Jul-21 06:31N 43°26' E 004°54'0 0.0
2017-Jul-21 06:00N 43°26' E 004°54'0 0.0
2017-Jul-21 05:31N 43°26' E 004°54'0 0.0
2017-Jul-21 05:00N 43°26' E 004°54'0 0.0
2017-Jul-21 04:30N 43°26' E 004°54'0 0.0
2017-Jul-21 04:00N 43°26' E 004°54'0 0.0
2017-Jul-21 03:31N 43°26' E 004°54'0 0.0
2017-Jul-21 03:00N 43°26' E 004°54'0 0.0
2017-Jul-21 02:31N 43°26' E 004°54'0 0.0
2017-Jul-21 02:00N 43°26' E 004°54'0 0.0
2017-Jul-21 01:30N 43°26' E 004°54'0 0.0
2017-Jul-21 01:00N 43°26' E 004°54'0 0.0
2017-Jul-21 00:31N 43°26' E 004°54'0 0.0
2017-Jul-21 00:01N 43°26' E 004°54'0 0.0
2017-Jul-20 23:30N 43°26' E 004°54'0 0.0
2017-Jul-20 23:00N 43°26' E 004°54'0 0.0
2017-Jul-20 22:30N 43°26' E 004°54'0 0.0
2017-Jul-20 22:00N 43°26' E 004°54'0 0.0
2017-Jul-20 21:30N 43°26' E 004°54'0 0.0
2017-Jul-20 21:00N 43°26' E 004°54'0 0.0
2017-Jul-20 20:30N 43°26' E 004°54'0 0.0
2017-Jul-20 20:00N 43°26' E 004°54'0 0.0
2017-Jul-20 19:30N 43°26' E 004°54'0 0.0
2017-Jul-20 19:00N 43°26' E 004°54'0 0.0
2017-Jul-20 18:31N 43°26' E 004°54'0 0.0
2017-Jul-20 18:00N 43°26' E 004°54'0 0.0
2017-Jul-20 17:31N 43°26' E 004°54'0 0.0
2017-Jul-20 17:00N 43°26' E 004°54'0 0.0
2017-Jul-20 16:31N 43°26' E 004°54'0 0.0
2017-Jul-20 16:00N 43°26' E 004°54'0 0.0
2017-Jul-20 15:31N 43°26' E 004°54'0 0.0
2017-Jul-20 15:00N 43°26' E 004°54'0 0.0
2017-Jul-20 14:00N 43°26' E 004°54'0 0.0
2017-Jul-20 13:30N 43°26' E 004°54'0 0.0
2017-Jul-20 13:00N 43°26' E 004°54'0 0.0
2017-Jul-20 12:30N 43°26' E 004°54'0 0.0
2017-Jul-20 12:00N 43°26' E 004°54'0 0.0
2017-Jul-20 11:30N 43°26' E 004°54'0 0.4
2017-Jul-20 11:01N 43°26' E 004°54'2 4.6
2017-Jul-20 10:30N 43°25' E 004°51'0 0.0
2017-Jul-20 10:00N 43°25' E 004°51'2 3.2
2017-Jul-20 09:31N 43°25' E 004°53'1 1.9
2017-Jul-20 09:00N 43°26' E 004°54'1 1.0
2017-Jul-20 08:31N 43°25' E 004°53'2 4.2
2017-Jul-20 08:01N 43°25' E 004°50'0 0.3
2017-Jul-20 07:30N 43°25' E 004°50'1 1.3
2017-Jul-20 07:01N 43°25' E 004°51'2 4.1
2017-Jul-20 06:30N 43°25' E 004°54'0 0.0
2017-Jul-20 06:00N 43°25' E 004°54'1 1.4
2017-Jul-20 05:30N 43°26' E 004°54'0 0.0
2017-Jul-20 05:00N 43°26' E 004°54'0 0.0
2017-Jul-20 04:30N 43°26' E 004°54'0 0.0
2017-Jul-20 04:00N 43°26' E 004°54'2 4.6
2017-Jul-20 03:31N 43°25' E 004°51'1 1.4
2017-Jul-20 03:00N 43°25' E 004°50'2 3.7
2017-Jul-20 02:28N 43°25' E 004°53'1 2.4
2017-Jul-20 02:00N 43°26' E 004°54'0 0.0
2017-Jul-20 01:30N 43°26' E 004°54'0 0.0
2017-Jul-20 01:01N 43°26' E 004°54'0 0.0
2017-Jul-20 00:30N 43°26' E 004°54'0 0.0
2017-Jul-20 00:00N 43°26' E 004°54'0 0.0
2017-Jul-19 23:30N 43°26' E 004°54'0 0.0
2017-Jul-19 23:00N 43°26' E 004°54'0 0.0
2017-Jul-19 22:30N 43°26' E 004°54'0 0.0
2017-Jul-19 22:00N 43°26' E 004°54'0 0.0
2017-Jul-19 21:30N 43°26' E 004°54'0 0.0
2017-Jul-19 21:00N 43°26' E 004°54'0 0.0
2017-Jul-19 20:30N 43°26' E 004°54'0 0.0
2017-Jul-19 20:00N 43°26' E 004°54'1 2.3
2017-Jul-19 19:29N 43°26' E 004°52'0 0.6
2017-Jul-19 19:00N 43°26' E 004°52'1 2.4
2017-Jul-19 18:30N 43°26' E 004°54'1 2.4
2017-Jul-19 17:59N 43°25' E 004°53'1 2.7
2017-Jul-19 17:30N 43°26' E 004°54'0 0.0
2017-Jul-19 17:00N 43°26' E 004°54'0 0.0
2017-Jul-19 16:30N 43°26' E 004°54'1 1.2
2017-Jul-19 16:00N 43°25' E 004°53'2 4.8
2017-Jul-19 15:30N 43°25' E 004°50'0 0.0
2017-Jul-19 15:00N 43°25' E 004°50'3 5.6
2017-Jul-19 14:30N 43°26' E 004°54'0 0.2
2017-Jul-19 14:00N 43°26' E 004°54'0 0.0
2017-Jul-19 13:30N 43°26' E 004°54'0 0.0
2017-Jul-19 13:00N 43°26' E 004°54'0 0.0
2017-Jul-19 12:30N 43°26' E 004°54'0 0.0
2017-Jul-19 12:00N 43°26' E 004°54'0 0.0
2017-Jul-19 11:30N 43°26' E 004°54'0 0.0
2017-Jul-19 11:00N 43°26' E 004°54'0 0.0
2017-Jul-19 10:30N 43°26' E 004°54'0 0.0
2017-Jul-19 10:00N 43°26' E 004°54'0 0.0
2017-Jul-19 09:30N 43°26' E 004°54'0 0.0
2017-Jul-19 09:00N 43°26' E 004°54'0 0.0
2017-Jul-19 08:30N 43°26' E 004°54'0 0.0
2017-Jul-19 08:00N 43°26' E 004°54'0 0.0
2017-Jul-19 07:30N 43°26' E 004°54'0 0.0
2017-Jul-19 07:00N 43°26' E 004°54'0 0.0
2017-Jul-19 06:30N 43°26' E 004°54'1 1.6
2017-Jul-19 06:01N 43°25' E 004°53'0 0.1
2017-Jul-19 05:30N 43°25' E 004°53'1 1.6
2017-Jul-19 05:00N 43°26' E 004°54'0 0.0
2017-Jul-19 04:30N 43°26' E 004°54'0 0.0
2017-Jul-19 04:00N 43°26' E 004°54'3 5.5
2017-Jul-19 03:30N 43°25' E 004°50'0 0.5
2017-Jul-19 03:01N 43°25' E 004°50'2 4.3
2017-Jul-19 02:28N 43°25' E 004°53'1 2.3
2017-Jul-19 02:00N 43°26' E 004°54'0 0.0
2017-Jul-19 01:30N 43°26' E 004°54'0 0.0
2017-Jul-19 01:00N 43°26' E 004°54'0 0.0
2017-Jul-19 00:30N 43°26' E 004°54'0 0.0
2017-Jul-19 00:00N 43°26' E 004°54'0 0.0
2017-Jul-18 23:30N 43°26' E 004°54'0 0.0
2017-Jul-18 23:00N 43°26' E 004°54'0 0.0
2017-Jul-18 22:30N 43°26' E 004°54'0 0.0
2017-Jul-18 22:00N 43°26' E 004°54'0 0.0
2017-Jul-18 21:30N 43°26' E 004°54'0 0.0
2017-Jul-18 21:00N 43°26' E 004°54'0 0.0
2017-Jul-18 20:30N 43°26' E 004°54'0 0.0
2017-Jul-18 20:00N 43°26' E 004°54'0 0.0
2017-Jul-18 19:30N 43°26' E 004°54'0 0.0
2017-Jul-18 19:00N 43°26' E 004°54'0 0.0
2017-Jul-18 18:30N 43°26' E 004°54'0 0.0
2017-Jul-18 18:00N 43°26' E 004°54'0 0.0
2017-Jul-18 17:30N 43°26' E 004°54'0 0.0
2017-Jul-18 17:00N 43°26' E 004°54'0 0.0
2017-Jul-18 16:30N 43°26' E 004°54'0 0.0
2017-Jul-18 16:00N 43°26' E 004°54'0 0.0
2017-Jul-18 15:30N 43°26' E 004°54'0 0.0
2017-Jul-18 15:00N 43°26' E 004°54'1 1.0
2017-Jul-18 14:00N 43°25' E 004°53'1 2.1
2017-Jul-18 13:31N 43°24' E 004°54'1 2.9
2017-Jul-18 13:00N 43°25' E 004°53'0 0.9
2017-Jul-18 12:30N 43°26' E 004°54'0 0.0
2017-Jul-18 12:00N 43°26' E 004°54'1 1.7
2017-Jul-18 11:21N 43°26' E 004°52'1 2.2
2017-Jul-18 11:00N 43°25' E 004°53'0 0.4
2017-Jul-18 10:30N 43°25' E 004°53'1 2.0
2017-Jul-18 10:00N 43°26' E 004°54'0 0.0
2017-Jul-18 09:30N 43°26' E 004°54'0 0.0
2017-Jul-18 09:00N 43°26' E 004°54'0 0.0
2017-Jul-18 08:30N 43°26' E 004°54'0 0.0
2017-Jul-18 08:00N 43°26' E 004°54'0 0.0
2017-Jul-18 07:30N 43°26' E 004°54'0 0.0
2017-Jul-18 07:00N 43°26' E 004°54'0 0.0
2017-Jul-18 06:30N 43°26' E 004°54'0 0.0
2017-Jul-18 06:00N 43°26' E 004°54'0 0.0
2017-Jul-18 05:30N 43°26' E 004°54'0 0.0
2017-Jul-18 05:00N 43°26' E 004°54'0 0.0
2017-Jul-18 04:30N 43°26' E 004°54'0 0.0
2017-Jul-18 04:00N 43°26' E 004°54'0 0.0
2017-Jul-18 03:30N 43°26' E 004°54'0 0.0
2017-Jul-18 03:00N 43°26' E 004°54'0 0.0
2017-Jul-18 02:30N 43°26' E 004°54'0 0.0
2017-Jul-18 02:00N 43°26' E 004°54'0 0.0
2017-Jul-18 01:30N 43°26' E 004°54'0 0.0
2017-Jul-18 01:00N 43°26' E 004°54'0 0.0
2017-Jul-18 00:30N 43°26' E 004°54'0 0.0
2017-Jul-18 00:00N 43°26' E 004°54'0 0.0
2017-Jul-17 23:30N 43°26' E 004°54'0 0.0
2017-Jul-17 23:00N 43°26' E 004°54'0 0.0
2017-Jul-17 22:30N 43°26' E 004°54'0 0.0
2017-Jul-17 22:00N 43°26' E 004°54'0 0.0
2017-Jul-17 21:30N 43°26' E 004°54'0 0.0
2017-Jul-17 21:00N 43°26' E 004°54'0 0.0
2017-Jul-17 20:30N 43°26' E 004°54'0 0.0
2017-Jul-17 20:00N 43°26' E 004°54'0 0.0
2017-Jul-17 19:30N 43°26' E 004°54'0 0.0
2017-Jul-17 19:00N 43°26' E 004°54'0 0.0
2017-Jul-17 18:30N 43°26' E 004°54'0 0.0
2017-Jul-17 18:00N 43°26' E 004°54'0 0.0
2017-Jul-17 17:30N 43°26' E 004°54'0 0.0
2017-Jul-17 17:00N 43°26' E 004°54'0 0.0
2017-Jul-17 16:30N 43°26' E 004°54'0 0.0
2017-Jul-17 16:00N 43°26' E 004°54'0 0.0
2017-Jul-17 15:30N 43°26' E 004°54'0 0.0
2017-Jul-17 15:00N 43°26' E 004°54'0 0.0
2017-Jul-17 14:30N 43°26' E 004°54'0 0.0
2017-Jul-17 14:00N 43°26' E 004°54'0 0.0
2017-Jul-17 13:30N 43°26' E 004°54'0 0.0
2017-Jul-17 13:00N 43°26' E 004°54'0 0.0
2017-Jul-17 12:30N 43°26' E 004°54'0 0.0
2017-Jul-17 12:00N 43°26' E 004°54'0 0.0
2017-Jul-17 11:30N 43°26' E 004°54'0 0.0
2017-Jul-17 11:00N 43°26' E 004°54'0 0.0
2017-Jul-17 10:30N 43°26' E 004°54'0 0.0
2017-Jul-17 10:00N 43°26' E 004°54'0 0.0
2017-Jul-17 09:30N 43°26' E 004°54'0 0.0
2017-Jul-17 09:00N 43°26' E 004°54'0 0.0
2017-Jul-17 08:30N 43°26' E 004°54'0 0.0
2017-Jul-17 08:00N 43°26' E 004°54'0 0.0
2017-Jul-17 07:30N 43°26' E 004°54'0 0.0
2017-Jul-17 06:54N 43°26' E 004°54'0 0.0
2017-Jul-17 06:27N 43°26' E 004°54'0 0.0
2017-Jul-17 05:59N 43°26' E 004°54'0 0.0
2017-Jul-17 05:29N 43°26' E 004°54'0 0.0
2017-Jul-17 05:00N 43°26' E 004°54'0 0.0
2017-Jul-17 04:29N 43°26' E 004°54'0 0.0
2017-Jul-17 03:59N 43°26' E 004°54'0 0.0
2017-Jul-17 03:29N 43°26' E 004°54'0 0.0
2017-Jul-17 03:00N 43°26' E 004°54'0 0.0
2017-Jul-17 02:27N 43°26' E 004°54'0 0.0
2017-Jul-17 01:56N 43°26' E 004°54'0 0.0
2017-Jul-17 01:29N 43°26' E 004°54'0 0.0
2017-Jul-17 00:57N 43°26' E 004°54'0 0.0
2017-Jul-17 00:30N 43°26' E 004°54'0 0.0
2017-Jul-16 23:59N 43°26' E 004°54'0 0.0
2017-Jul-16 23:30N 43°26' E 004°54'0 0.0
2017-Jul-16 23:00N 43°26' E 004°54'0 0.0
2017-Jul-16 22:30N 43°26' E 004°54'0 0.0
2017-Jul-16 21:59N 43°26' E 004°54'0 0.0
2017-Jul-16 21:16N 43°26' E 004°54'0 0.0
2017-Jul-16 21:00N 43°26' E 004°54'0 0.0
2017-Jul-16 20:15N 43°26' E 004°54'0 0.0
2017-Jul-16 20:00N 43°26' E 004°54'0 0.0
2017-Jul-16 19:28N 43°26' E 004°54'0 0.0
2017-Jul-16 19:00N 43°26' E 004°54'0 0.0
2017-Jul-16 18:28N 43°26' E 004°54'0 0.0
2017-Jul-16 17:59N 43°26' E 004°54'0 0.0
2017-Jul-16 17:30N 43°26' E 004°54'0 0.0
2017-Jul-16 16:59N 43°26' E 004°54'0 0.0
2017-Jul-16 16:26N 43°26' E 004°54'0 0.0
2017-Jul-16 15:46N 43°26' E 004°54'0 0.0
2017-Jul-16 15:21N 43°26' E 004°54'0 0.0
2017-Jul-16 14:56N 43°26' E 004°54'0 0.0
2017-Jul-16 13:11N 43°26' E 004°54'0 0.0
2017-Jul-16 12:55N 43°26' E 004°54'0 0.0
2017-Jul-16 11:51N 43°26' E 004°54'0 0.0
2017-Jul-16 11:25N 43°26' E 004°54'0 0.0
2017-Jul-16 10:57N 43°26' E 004°54'0 0.0
2017-Jul-16 10:27N 43°26' E 004°54'0 0.0
2017-Jul-16 09:22N 43°26' E 004°54'0 0.0
2017-Jul-16 09:00N 43°26' E 004°54'0 0.0
2017-Jul-16 08:23N 43°26' E 004°54'0 0.0
2017-Jul-16 07:57N 43°26' E 004°54'0 0.0
2017-Jul-16 07:28N 43°26' E 004°54'0 0.0
2017-Jul-16 07:00N 43°26' E 004°54'0 0.0
2017-Jul-16 06:25N 43°26' E 004°54'0 0.0
2017-Jul-16 05:57N 43°26' E 004°54'0 0.0
2017-Jul-16 05:27N 43°26' E 004°54'0 0.0
2017-Jul-16 04:59N 43°26' E 004°54'0 0.0
2017-Jul-16 04:30N 43°26' E 004°54'0 0.0
2017-Jul-16 03:57N 43°26' E 004°54'0 0.0
2017-Jul-16 03:30N 43°26' E 004°54'0 0.0
2017-Jul-16 02:02N 43°26' E 004°54'0 0.0
2017-Jul-16 01:21N 43°26' E 004°54'0 0.0
2017-Jul-16 00:57N 43°26' E 004°54'0 0.0
2017-Jul-16 00:21N 43°26' E 004°54'0 0.0
2017-Jul-15 23:45N 43°26' E 004°54'0 0.0
2017-Jul-15 23:29N 43°26' E 004°54'0 0.0
2017-Jul-15 23:00N 43°26' E 004°54'0 0.0
2017-Jul-15 22:23N 43°26' E 004°54'0 0.0
2017-Jul-15 22:00N 43°26' E 004°54'0 0.0
2017-Jul-15 21:30N 43°26' E 004°54'0 0.0
2017-Jul-15 20:59N 43°26' E 004°54'0 0.0
2017-Jul-15 20:23N 43°26' E 004°54'0 0.0
2017-Jul-15 19:55N 43°26' E 004°54'0 0.0
2017-Jul-15 19:16N 43°26' E 004°54'0 0.0
2017-Jul-15 19:00N 43°26' E 004°54'0 0.0
2017-Jul-15 18:17N 43°26' E 004°54'0 0.0
2017-Jul-15 17:51N 43°26' E 004°54'0 0.0
2017-Jul-15 17:27N 43°26' E 004°54'0 0.0
2017-Jul-15 16:57N 43°26' E 004°54'0 0.0
2017-Jul-15 15:44N 43°26' E 004°54'0 0.0
2017-Jul-15 15:16N 43°26' E 004°54'0 0.0
2017-Jul-15 15:00N 43°26' E 004°54'0 0.0
2017-Jul-15 13:32N 43°26' E 004°54'0 0.0
2017-Jul-15 13:30N 43°26' E 004°54'0 0.0
2017-Jul-15 13:01N 43°26' E 004°54'0 0.0
2017-Jul-15 11:41N 43°26' E 004°54'0 0.0
2017-Jul-15 11:30N 43°26' E 004°54'0 0.0
2017-Jul-15 11:00N 43°26' E 004°54'0 0.0
2017-Jul-15 09:50N 43°26' E 004°54'0 0.0
2017-Jul-15 09:22N 43°26' E 004°54'0 0.0
2017-Jul-15 09:00N 43°26' E 004°54'0 0.0
2017-Jul-15 08:22N 43°26' E 004°54'0 0.0
2017-Jul-15 07:59N 43°26' E 004°54'0 0.0
2017-Jul-15 07:17N 43°26' E 004°54'0 0.0
2017-Jul-15 07:00N 43°26' E 004°54'0 0.0
2017-Jul-15 05:42N 43°26' E 004°54'0 0.0
2017-Jul-15 05:30N 43°26' E 004°54'0 0.0
2017-Jul-15 05:00N 43°26' E 004°54'0 0.0
2017-Jul-15 04:29N 43°26' E 004°54'0 0.0
2017-Jul-15 04:00N 43°26' E 004°54'0 0.0
2017-Jul-15 03:29N 43°26' E 004°54'0 0.0
2017-Jul-15 02:58N 43°26' E 004°54'  

Dump ship's entire track history